Time;durP1;ratioP1;P1;durP2;ratioP2;P2;SDS_P1;SDS_P2;PMS_P1;PMS_P2;Temp;Humidity;BMP_temperature;BMP_pressure;BME280_temperature;BME280_humidity;BME280_pressure;Samples;Min_cycle;Max_cycle;Signal;HPM_P1;HPM_P2
2023/03/22 00:00:28;;;;;;;0.50;0.50;;;;;;;;;;4986020;28;20503;-76
2023/03/22 00:02:55;;;;;;;0.20;0.10;;;;;;;;;;4984668;28;20046;-76
2023/03/22 00:05:21;;;;;;;0.82;0.40;;;;;;;;;;4969311;28;20798;-76
2023/03/22 00:07:53;;;;;;;0.28;0.28;;;;;;;;;;4974786;28;20558;-77
2023/03/22 00:10:19;;;;;;;0.20;0.20;;;;;;;;;;4990100;28;20045;-77
2023/03/22 00:12:45;;;;;;;0.20;0.10;;;;;;;;;;4966333;28;20076;-76
2023/03/22 00:15:11;;;;;;;0.88;0.85;;;;;;;;;;4985390;28;20415;-76
2023/03/22 00:17:37;;;;;;;0.20;0.20;;;;;;;;;;4973152;28;20466;-76
2023/03/22 00:20:07;;;;;;;0.22;0.22;;;;;;;;;;4984977;28;20042;-76
2023/03/22 00:22:33;;;;;;;0.90;0.90;;;;;;;;;;4969575;28;20049;-76
2023/03/22 00:24:59;;;;;;;0.20;0.10;;;;;;;;;;4992796;28;20402;-75
2023/03/22 00:27:25;;;;;;;0.47;0.13;;;;;;;;;;4990598;28;20376;-76
2023/03/22 00:29:51;;;;;;;0.20;0.10;;;;;;;;;;4993662;28;20332;-75
2023/03/22 00:32:17;;;;;;;0.30;0.20;;;;;;;;;;4992975;28;20077;-76
2023/03/22 00:34:44;;;;;;;0.20;0.10;;;;;;;;;;4990275;28;20478;-75
2023/03/22 00:37:10;;;;;;;0.30;0.20;;;;;;;;;;4990014;28;20402;-76
2023/03/22 00:39:36;;;;;;;0.20;0.10;;;;;;;;;;4972969;28;20041;-76
2023/03/22 00:42:05;;;;;;;0.52;0.45;;;;;;;;;;4968676;28;20037;-76
2023/03/22 00:44:32;;;;;;;0.20;0.20;;;;;;;;;;4970501;28;20128;-75
2023/03/22 00:46:58;;;;;;;0.57;0.20;;;;;;;;;;4986913;28;20052;-76
2023/03/22 00:49:27;;;;;;;0.50;0.50;;;;;;;;;;4970333;28;20452;-76
2023/03/22 00:51:53;;;;;;;0.43;0.30;;;;;;;;;;4992768;28;20048;-76
2023/03/22 00:54:20;;;;;;;0.20;0.10;;;;;;;;;;4974568;28;20527;-76
2023/03/22 00:56:48;;;;;;;0.85;0.63;;;;;;;;;;4965301;28;21602;-76
2023/03/22 00:59:15;;;;;;;0.22;0.15;;;;;;;;;;4987110;28;20104;-75
2023/03/22 01:01:41;;;;;;;0.30;0.20;;;;;;;;;;4991586;28;20502;-81
2023/03/22 01:04:08;;;;;;;0.20;0.10;;;;;;;;;;4975904;28;20075;-77
2023/03/22 01:06:34;;;;;;;0.20;0.10;;;;;;;;;;4988105;28;20052;-77
2023/03/22 01:09:00;;;;;;;0.20;0.10;;;;;;;;;;4990590;28;20033;-76
2023/03/22 01:11:27;;;;;;;0.20;0.20;;;;;;;;;;4990363;28;20057;-76
2023/03/22 01:13:54;;;;;;;0.20;0.10;;;;;;;;;;4985878;28;20425;-77
2023/03/22 01:16:20;;;;;;;0.20;0.17;;;;;;;;;;4978723;28;20432;-75
2023/03/22 01:18:46;;;;;;;1.33;1.23;;;;;;;;;;4983384;28;20710;-76
2023/03/22 01:21:12;;;;;;;0.35;0.15;;;;;;;;;;4989358;28;20129;-76
2023/03/22 01:23:38;;;;;;;0.30;0.20;;;;;;;;;;4986528;28;20073;-77
2023/03/22 01:26:05;;;;;;;0.52;0.38;;;;;;;;;;4970358;28;20203;-77
2023/03/22 01:28:31;;;;;;;0.20;0.10;;;;;;;;;;4984995;28;20129;-76
2023/03/22 01:31:00;;;;;;;0.20;0.10;;;;;;;;;;4988798;28;20037;-76
2023/03/22 01:33:26;;;;;;;0.20;0.00;;;;;;;;;;4989356;28;20049;-76
2023/03/22 01:35:52;;;;;;;0.20;0.10;;;;;;;;;;4969471;28;20511;-76
2023/03/22 01:38:18;;;;;;;0.22;0.20;;;;;;;;;;4984405;28;20313;-78
2023/03/22 01:40:44;;;;;;;0.20;0.10;;;;;;;;;;4991275;28;20430;-76
2023/03/22 01:43:14;;;;;;;0.57;0.57;;;;;;;;;;4985251;28;20053;-77
2023/03/22 01:45:42;;;;;;;0.20;0.00;;;;;;;;;;4988981;28;20045;-76
2023/03/22 01:48:14;;;;;;;0.30;0.10;;;;;;;;;;4983640;28;20046;-74
2023/03/22 01:50:42;;;;;;;0.20;0.20;;;;;;;;;;4988457;28;20046;-75
2023/03/22 01:53:09;;;;;;;0.38;0.20;;;;;;;;;;4990361;28;20596;-75
2023/03/22 01:55:36;;;;;;;0.20;0.10;;;;;;;;;;4970771;28;20050;-75
2023/03/22 01:58:03;;;;;;;0.30;0.30;;;;;;;;;;4974492;28;20041;-75
2023/03/22 02:00:29;;;;;;;0.75;0.20;;;;;;;;;;4991144;28;20045;-75
2023/03/22 02:02:55;;;;;;;0.22;0.13;;;;;;;;;;4978652;28;20067;-75
2023/03/22 02:05:21;;;;;;;0.20;0.10;;;;;;;;;;4987938;28;20454;-75
2023/03/22 02:07:47;;;;;;;0.63;0.20;;;;;;;;;;4974502;28;20065;-74
2023/03/22 02:10:19;;;;;;;0.20;0.10;;;;;;;;;;4984963;28;20155;-75
2023/03/22 02:12:58;;;;;;;0.25;0.10;;;;;;;;;;4992837;28;20052;-74
2023/03/22 02:15:38;;;;;;;0.38;0.20;;;;;;;;;;4971025;28;20041;-75
2023/03/22 02:18:15;;;;;;;0.20;0.10;;;;;;;;;;4981646;28;20049;-74
2023/03/22 02:20:41;;;;;;;0.20;0.10;;;;;;;;;;4969267;28;20041;-74
2023/03/22 02:23:33;;;;;;;0.20;0.10;;;;;;;;;;4986895;28;20042;-74
2023/03/22 02:26:17;;;;;;;0.20;0.10;;;;;;;;;;4990345;28;20034;-74
2023/03/22 02:28:44;;;;;;;0.20;0.15;;;;;;;;;;4991794;28;20415;-74
2023/03/22 02:31:28;;;;;;;0.20;0.10;;;;;;;;;;4987764;28;20091;-75
2023/03/22 02:34:14;;;;;;;0.20;0.15;;;;;;;;;;4970832;28;20038;-75
2023/03/22 02:36:43;;;;;;;0.75;0.15;;;;;;;;;;4992336;28;20045;-75
2023/03/22 02:39:15;;;;;;;0.20;0.20;;;;;;;;;;4978748;28;21003;-75
2023/03/22 02:41:41;;;;;;;0.40;0.40;;;;;;;;;;4985265;28;20030;-75
2023/03/22 02:44:13;;;;;;;0.20;0.10;;;;;;;;;;4968207;28;20566;-73
2023/03/22 02:46:58;;;;;;;0.47;0.20;;;;;;;;;;4987757;28;20069;-75
2023/03/22 02:49:34;;;;;;;0.20;0.10;;;;;;;;;;4985917;28;20080;-75
2023/03/22 02:52:09;;;;;;;0.20;0.10;;;;;;;;;;4988080;28;20037;-75
2023/03/22 02:54:42;;;;;;;0.20;0.10;;;;;;;;;;4986115;28;20052;-74
2023/03/22 02:57:11;;;;;;;0.20;0.10;;;;;;;;;;4991647;28;20069;-75
2023/03/22 02:59:39;;;;;;;0.20;0.10;;;;;;;;;;4969416;28;20033;-74
2023/03/22 03:02:08;;;;;;;0.30;0.28;;;;;;;;;;4981695;28;20049;-75
2023/03/22 03:04:37;;;;;;;0.20;0.20;;;;;;;;;;4985668;28;20188;-75
2023/03/22 03:07:06;;;;;;;0.55;0.55;;;;;;;;;;4988831;28;20045;-75
2023/03/22 03:09:32;;;;;;;0.20;0.10;;;;;;;;;;4973372;28;20038;-74
2023/03/22 03:11:58;;;;;;;0.20;0.10;;;;;;;;;;4972340;28;20041;-75
2023/03/22 03:14:29;;;;;;;0.20;0.00;;;;;;;;;;4987969;28;20042;-74
2023/03/22 03:17:10;;;;;;;0.38;0.25;;;;;;;;;;4970868;28;20045;-75
2023/03/22 03:19:40;;;;;;;0.20;0.10;;;;;;;;;;4975011;28;20042;-73
2023/03/22 03:22:12;;;;;;;0.20;0.10;;;;;;;;;;4977317;28;20111;-75
2023/03/22 03:24:43;;;;;;;0.20;0.08;;;;;;;;;;4985498;28;20093;-74
2023/03/22 03:27:14;;;;;;;0.20;0.00;;;;;;;;;;4990239;28;20088;-74
2023/03/22 03:29:43;;;;;;;0.20;0.10;;;;;;;;;;4970535;28;21982;-74
2023/03/22 03:32:13;;;;;;;0.20;0.00;;;;;;;;;;4959399;28;20075;-74
2023/03/22 03:34:51;;;;;;;0.20;0.10;;;;;;;;;;4974903;28;20033;-75
2023/03/22 03:37:20;;;;;;;0.20;0.10;;;;;;;;;;4985774;28;20042;-74
2023/03/22 03:39:51;;;;;;;0.30;0.20;;;;;;;;;;4976132;28;20042;-73
2023/03/22 03:42:17;;;;;;;0.20;0.10;;;;;;;;;;4982393;28;20073;-74
2023/03/22 03:44:44;;;;;;;0.20;0.10;;;;;;;;;;4983318;28;20049;-74
2023/03/22 03:47:11;;;;;;;0.20;0.10;;;;;;;;;;4987420;28;20072;-74
2023/03/22 03:49:37;;;;;;;0.20;0.20;;;;;;;;;;4986697;28;20043;-75
2023/03/22 03:52:04;;;;;;;0.50;0.50;;;;;;;;;;4964712;28;20100;-74
2023/03/22 03:54:30;;;;;;;0.20;0.10;;;;;;;;;;4971824;28;20042;-75
2023/03/22 03:56:57;;;;;;;0.20;0.10;;;;;;;;;;4985942;28;20069;-75
2023/03/22 03:59:23;;;;;;;1.10;0.22;;;;;;;;;;4986544;28;20467;-74
2023/03/22 04:01:49;;;;;;;0.20;0.10;;;;;;;;;;4989142;28;20073;-74
2023/03/22 04:04:25;;;;;;;0.20;0.10;;;;;;;;;;4984868;28;20638;-74
2023/03/22 04:06:52;;;;;;;0.20;0.10;;;;;;;;;;4995833;28;20192;-74
2023/03/22 04:09:18;;;;;;;0.20;0.10;;;;;;;;;;4992958;28;20038;-74
2023/03/22 04:11:44;;;;;;;0.20;0.00;;;;;;;;;;4993976;28;20666;-74
2023/03/22 04:14:10;;;;;;;0.20;0.10;;;;;;;;;;4993151;28;20526;-74
2023/03/22 04:16:36;;;;;;;0.20;0.10;;;;;;;;;;4995199;28;20042;-74
2023/03/22 04:19:02;;;;;;;0.20;0.10;;;;;;;;;;4989328;28;20049;-75
2023/03/22 04:21:28;;;;;;;0.20;0.10;;;;;;;;;;4992699;28;20121;-74
2023/03/22 04:23:55;;;;;;;0.20;0.20;;;;;;;;;;4991103;28;20125;-75
2023/03/22 04:26:21;;;;;;;0.20;0.10;;;;;;;;;;4988794;28;20053;-74
2023/03/22 04:28:47;;;;;;;0.90;0.25;;;;;;;;;;4993380;28;20046;-74
2023/03/22 04:31:13;;;;;;;0.20;0.13;;;;;;;;;;4993829;28;20404;-75
2023/03/22 04:33:39;;;;;;;0.20;0.10;;;;;;;;;;4989561;28;20040;-74
2023/03/22 04:36:09;;;;;;;0.20;0.10;;;;;;;;;;4986767;28;20135;-74
2023/03/22 04:38:38;;;;;;;0.20;0.10;;;;;;;;;;4987882;28;20045;-75
2023/03/22 04:41:04;;;;;;;0.20;0.10;;;;;;;;;;4967773;28;20061;-76
2023/03/22 04:43:33;;;;;;;0.20;0.10;;;;;;;;;;4969872;28;20140;-74
2023/03/22 04:46:00;;;;;;;0.20;0.10;;;;;;;;;;4993655;28;20738;-75
2023/03/22 04:48:26;;;;;;;0.20;0.10;;;;;;;;;;4976699;28;20128;-75
2023/03/22 04:50:53;;;;;;;0.20;0.13;;;;;;;;;;5018945;23;20522;-79
2023/03/22 04:53:25;;;;;;;0.55;0.28;;;;;;;;;;4968273;28;20038;-80
2023/03/22 04:55:52;;;;;;;0.20;0.10;;;;;;;;;;4985264;28;20045;-79
2023/03/22 04:58:20;;;;;;;0.20;0.20;;;;;;;;;;4991368;28;20046;-78
2023/03/22 05:00:47;;;;;;;0.20;0.20;;;;;;;;;;4980341;28;20046;-78
2023/03/22 05:03:17;;;;;;;0.20;0.10;;;;;;;;;;4975427;28;20589;-78
2023/03/22 05:05:49;;;;;;;0.20;0.10;;;;;;;;;;4974969;28;20098;-78
2023/03/22 05:08:15;;;;;;;0.32;0.32;;;;;;;;;;4956549;28;20046;-78
2023/03/22 05:10:41;;;;;;;0.20;0.10;;;;;;;;;;4973356;28;20125;-82
2023/03/22 05:13:07;;;;;;;0.20;0.10;;;;;;;;;;4962020;28;20039;-79
2023/03/22 05:15:33;;;;;;;1.10;0.50;;;;;;;;;;4973837;28;20137;-78
2023/03/22 05:17:59;;;;;;;0.63;0.63;;;;;;;;;;4974571;28;20043;-79
2023/03/22 05:20:25;;;;;;;0.20;0.13;;;;;;;;;;4978980;28;20037;-79
2023/03/22 05:22:55;;;;;;;0.65;0.63;;;;;;;;;;4948711;28;20038;-79
2023/03/22 05:25:21;;;;;;;0.20;0.13;;;;;;;;;;4971082;28;20830;-79
2023/03/22 05:27:49;;;;;;;0.20;0.10;;;;;;;;;;4965274;28;20077;-79
2023/03/22 05:30:15;;;;;;;0.38;0.20;;;;;;;;;;4966986;28;20144;-78
2023/03/22 05:32:46;;;;;;;0.20;0.20;;;;;;;;;;4964506;28;20624;-77
2023/03/22 05:35:12;;;;;;;0.20;0.10;;;;;;;;;;4962758;28;20042;-78
2023/03/22 05:37:39;;;;;;;0.20;0.10;;;;;;;;;;4968840;28;20431;-78
2023/03/22 05:40:08;;;;;;;0.20;0.17;;;;;;;;;;4970012;28;20313;-78
2023/03/22 05:42:35;;;;;;;0.20;0.10;;;;;;;;;;4955122;28;20137;-77
2023/03/22 05:45:01;;;;;;;0.20;0.10;;;;;;;;;;4973626;28;20154;-77
2023/03/22 05:47:27;;;;;;;1.75;0.50;;;;;;;;;;4968281;28;20054;-80
2023/03/22 05:49:53;;;;;;;0.40;0.38;;;;;;;;;;4976011;28;20418;-77
2023/03/22 05:52:19;;;;;;;0.80;0.80;;;;;;;;;;4954598;28;20069;-78
2023/03/22 05:54:45;;;;;;;0.20;0.20;;;;;;;;;;4952338;28;20046;-77
2023/03/22 05:57:11;;;;;;;1.02;1.02;;;;;;;;;;4966569;28;20500;-79
2023/03/22 05:59:37;;;;;;;0.47;0.47;;;;;;;;;;4959005;28;20053;-78
2023/03/22 06:02:04;;;;;;;0.20;0.10;;;;;;;;;;4963684;28;20046;-78
2023/03/22 06:04:31;;;;;;;0.68;0.30;;;;;;;;;;4957710;28;20180;-79
2023/03/22 06:06:57;;;;;;;1.10;0.25;;;;;;;;;;4959569;28;20871;-80
2023/03/22 06:09:23;;;;;;;0.30;0.30;;;;;;;;;;4956041;28;20532;-81
2023/03/22 06:11:49;;;;;;;0.52;0.30;;;;;;;;;;4942942;28;20050;-79
2023/03/22 06:14:15;;;;;;;0.47;0.45;;;;;;;;;;4956772;28;21993;-79
2023/03/22 06:16:41;;;;;;;0.20;0.20;;;;;;;;;;4960067;28;20073;-79
2023/03/22 06:19:07;;;;;;;0.20;0.13;;;;;;;;;;4964966;28;20137;-80
2023/03/22 06:21:33;;;;;;;0.40;0.30;;;;;;;;;;4963593;28;20034;-78
2023/03/22 06:24:00;;;;;;;0.35;0.28;;;;;;;;;;4938343;28;20134;-78
2023/03/22 06:26:26;;;;;;;0.20;0.10;;;;;;;;;;4935827;28;20042;-79
2023/03/22 06:28:52;;;;;;;0.77;0.30;;;;;;;;;;4950154;28;20050;-78
2023/03/22 06:31:18;;;;;;;0.28;0.20;;;;;;;;;;4962046;28;20518;-78
2023/03/22 06:33:44;;;;;;;0.40;0.30;;;;;;;;;;4951475;28;20725;-79
2023/03/22 06:36:10;;;;;;;0.57;0.35;;;;;;;;;;4959525;28;20547;-78
2023/03/22 06:38:36;;;;;;;0.57;0.57;;;;;;;;;;4942498;28;20510;-76
2023/03/22 06:41:02;;;;;;;1.92;0.75;;;;;;;;;;4966400;28;20257;-78
2023/03/22 06:43:28;;;;;;;0.95;0.32;;;;;;;;;;4958663;28;20050;-76
2023/03/22 06:45:56;;;;;;;0.20;0.10;;;;;;;;;;4956655;28;20057;-78
2023/03/22 06:48:22;;;;;;;0.20;0.10;;;;;;;;;;4956627;28;20130;-77
2023/03/22 06:50:48;;;;;;;0.43;0.20;;;;;;;;;;4935309;28;20585;-77
2023/03/22 06:53:14;;;;;;;0.20;0.10;;;;;;;;;;4946758;28;20046;-78
2023/03/22 06:55:40;;;;;;;0.20;0.20;;;11.70;99.90;;;;;;4964139;28;20065;-79
2023/03/22 06:58:05;;;;;;;1.02;0.65;;;10.80;99.90;;;;;;4966003;28;20046;-78
2023/03/22 07:00:33;;;;;;;0.20;0.10;;;10.50;99.90;;;;;;4964161;28;20369;-77
2023/03/22 07:03:00;;;;;;;0.20;0.10;;;10.30;99.90;;;;;;4970215;28;21239;-76
2023/03/22 07:05:25;;;;;;;0.20;0.20;;;10.50;99.90;;;;;;4967469;28;20560;-78
2023/03/22 07:07:51;;;;;;;0.32;0.32;;;10.50;99.90;;;;;;4965600;28;20065;-78
2023/03/22 07:10:17;;;;;;;0.85;0.85;;;10.50;99.90;;;;;;4956469;28;20499;-77
2023/03/22 07:12:42;;;;;;;0.35;0.25;;;10.50;99.90;;;;;;4965732;28;20046;-77
2023/03/22 07:15:08;;;;;;;0.20;0.10;;;10.50;99.90;;;;;;4969989;28;20050;-79
2023/03/22 07:17:34;;;;;;;3.45;0.98;;;10.40;99.90;;;;;;4972198;28;20050;-78
2023/03/22 07:20:00;;;;;;;0.20;0.10;;;10.60;99.90;;;;;;4967713;28;20549;-77
2023/03/22 07:22:26;;;;;;;0.30;0.30;;;10.60;99.90;;;;;;4968497;28;20036;-80
2023/03/22 07:24:52;;;;;;;0.30;0.30;;;10.80;99.90;;;;;;4965379;28;20420;-80
2023/03/22 07:27:18;;;;;;;0.30;0.30;;;10.70;99.90;;;;;;4964668;28;20064;-79
2023/03/22 07:29:44;;;;;;;0.77;0.22;;;10.60;99.90;;;;;;4964167;28;20042;-77
2023/03/22 07:32:10;;;;;;;0.22;0.22;;;;;;;;;;4966618;28;20049;-77
2023/03/22 07:34:36;;;;;;;0.20;0.20;;;;;;;;;;4966821;28;20050;-76
2023/03/22 07:37:05;;;;;;;0.38;0.25;;;;;;;;;;4940237;28;20053;-78
2023/03/22 07:39:31;;;;;;;0.20;0.10;;;;;;;;;;4962589;28;20108;-80
2023/03/22 07:41:57;;;;;;;0.28;0.28;;;;;;;;;;4969536;28;20547;-77
2023/03/22 07:44:23;;;;;;;0.20;0.10;;;;;;;;;;4951379;28;20142;-78
2023/03/22 07:46:51;;;;;;;0.20;0.15;;;;;;;;;;4968376;28;20042;-78
2023/03/22 07:49:17;;;;;;;0.40;0.40;;;;;;;;;;4971569;28;20047;-78
2023/03/22 07:51:43;;;;;;;0.20;0.10;;;;;;;;;;4969425;28;20058;-80
2023/03/22 07:54:09;;;;;;;0.20;0.10;;;;;;;;;;4954319;28;20046;-77
2023/03/22 07:56:35;;;;;;;0.20;0.20;;;;;;;;;;4952435;28;20333;-77
2023/03/22 07:59:01;;;;;;;0.30;0.30;;;;;;;;;;4960810;28;20050;-79
2023/03/22 08:01:27;;;;;;;0.20;0.10;;;;;;;;;;4964725;28;20046;-78
2023/03/22 08:03:53;;;;;;;0.20;0.10;;;;;;;;;;4967012;28;20065;-80
2023/03/22 08:06:20;;;;;;;2.70;0.25;;;;;;;;;;4967564;28;20101;-79
2023/03/22 08:08:46;;;;;;;0.20;0.10;;;;;;;;;;4970414;28;20042;-79
2023/03/22 08:11:13;;;;;;;0.20;0.10;;;;;;;;;;4944017;28;20081;-78
2023/03/22 08:13:39;;;;;;;3.10;0.35;;;;;;;;;;4969428;28;20050;-78
2023/03/22 08:16:05;;;;;;;0.47;0.20;;;;;;;;;;4967631;28;20081;-79
2023/03/22 08:18:31;;;;;;;0.20;0.10;;;;;;;;;;4967926;28;20050;-77
2023/03/22 08:20:59;;;;;;;0.43;0.43;;;;;;;;;;4964047;28;20065;-80
2023/03/22 08:23:26;;;;;;;0.20;0.10;;;;;;;;;;4969956;28;20125;-79
2023/03/22 08:25:52;;;;;;;0.20;0.10;;;;;;;;;;4941307;28;20088;-77
2023/03/22 08:28:19;;;;;;;0.77;0.52;;;;;;;;;;4964594;28;20046;-77
2023/03/22 08:30:45;;;;;;;0.20;0.10;;;;;;;;;;4963343;28;20470;-78
2023/03/22 08:33:12;;;;;;;0.20;0.10;;;;;;;;;;4952906;28;20042;-78
2023/03/22 08:35:38;;;;;;;0.57;0.28;;;;;;;;;;4942584;28;20426;-79
2023/03/22 08:38:04;;;;;;;0.20;0.10;;;;;;;;;;4966412;28;20061;-79
2023/03/22 08:40:30;;;;;;;0.55;0.40;;;;;;;;;;4971630;28;20051;-79
2023/03/22 08:42:57;;;;;;;0.20;0.10;;;;;;;;;;4971806;28;20426;-78
2023/03/22 08:45:23;;;;;;;0.20;0.10;;;;;;;;;;4972926;28;20069;-81
2023/03/22 08:47:49;;;;;;;0.20;0.10;;;;;;;;;;4973021;28;20065;-78
2023/03/22 08:50:15;;;;;;;0.20;0.20;;;;;;;;;;4967070;28;20244;-77
2023/03/22 08:52:41;;;;;;;0.20;0.10;;;;;;;;;;4960365;28;20030;-78
2023/03/22 08:55:08;;;;;;;0.25;0.25;;;;;;;;;;4974662;28;20048;-79
2023/03/22 08:57:35;;;;;;;0.20;0.20;;;;;;;;;;4967137;28;20047;-80
2023/03/22 09:00:03;;;;;;;0.20;0.08;;;;;;;;;;4970276;28;20065;-78
2023/03/22 09:02:29;;;;;;;2.28;0.80;;;;;;;;;;4966632;28;20109;-78
2023/03/22 09:04:55;;;;;;;0.28;0.08;;;;;;;;;;4976194;28;20547;-78
2023/03/22 09:07:21;;;;;;;0.20;0.10;;;;;;;;;;4961585;28;20050;-79
2023/03/22 09:09:47;;;;;;;0.20;0.10;;;;;;;;;;4971516;28;20039;-78
2023/03/22 09:12:13;;;;;;;0.40;0.40;;;;;;;;;;4976685;28;20259;-79
2023/03/22 09:14:39;;;;;;;0.20;0.10;;;;;;;;;;4951624;28;20460;-78
2023/03/22 09:17:05;;;;;;;0.20;0.10;;;;;;;;;;4954106;28;20034;-79
2023/03/22 09:19:31;;;;;;;0.20;0.10;;;;;;;;;;4969642;28;20038;-82
2023/03/22 09:21:57;;;;;;;0.30;0.30;;;;;;;;;;4971349;28;20517;-79
2023/03/22 09:24:23;;;;;;;2.40;1.00;;;;;;;;;;4976058;28;20042;-81
2023/03/22 09:26:50;;;;;;;0.20;0.10;;;;;;;;;;4970641;28;20556;-79
2023/03/22 09:29:16;;;;;;;0.28;0.17;;;;;;;;;;4971089;28;20395;-79
2023/03/22 09:31:43;;;;;;;0.20;0.10;;;;;;;;;;4970694;28;20174;-81
2023/03/22 09:34:09;;;;;;;0.47;0.10;;;;;;;;;;4970116;28;20085;-80
2023/03/22 09:36:36;;;;;;;0.20;0.10;;;;;;;;;;4941116;28;20146;-79
2023/03/22 09:39:06;;;;;;;0.20;0.20;;;;;;;;;;4974290;28;20865;-80
2023/03/22 09:41:32;;;;;;;0.20;0.10;;;;;;;;;;4973860;28;20121;-79
2023/03/22 09:43:59;;;;;;;0.20;0.20;;;;;;;;;;4972105;28;20125;-80
2023/03/22 09:46:33;;;;;;;0.20;0.10;;;;;;;;;;4969314;28;20263;-79
2023/03/22 09:49:01;;;;;;;0.20;0.10;;;;;;;;;;4968227;28;20042;-79
2023/03/22 09:51:30;;;;;;;0.20;0.17;;;;;;;;;;4967484;28;20124;-77
2023/03/22 09:53:56;;;;;;;0.30;0.28;;;;;;;;;;4954738;28;20043;-78
2023/03/22 09:56:23;;;;;;;0.30;0.30;;;;;;;;;;4969430;28;20047;-79
2023/03/22 09:58:52;;;;;;;0.28;0.25;;;;;;;;;;4966844;28;20541;-81
2023/03/22 10:01:35;;;;;;;0.20;0.10;;;;;;;;;;4971553;28;20415;-80
2023/03/22 10:04:04;;;;;;;0.20;0.10;;;;;;;;;;4968452;28;20046;-80
2023/03/22 10:06:31;;;;;;;0.20;0.10;;;;;;;;;;4948599;28;20038;-80
2023/03/22 10:09:16;;;;;;;0.20;0.10;;;;;;;;;;4967831;28;20133;-81
2023/03/22 10:11:48;;;;;;;1.75;0.80;;;;;;;;;;4969091;28;20034;-80
2023/03/22 10:14:14;;;;;;;0.20;0.10;;;;;;;;;;4972783;28;20193;-80
2023/03/22 10:16:41;;;;;;;0.30;0.17;;;;;;;;;;4969329;28;20042;-80
2023/03/22 10:19:18;;;;;;;9.18;1.23;;;;;;;;;;4969190;28;20041;-79
2023/03/22 10:21:46;;;;;;;0.20;0.10;;;;;;;;;;4974056;28;20042;-80
2023/03/22 10:24:15;;;;;;;0.20;0.17;;;;;;;;;;4946024;28;22065;-78
2023/03/22 10:26:41;;;;;;;0.20;0.10;;;;;;;;;;4968332;28;20116;-77
2023/03/22 10:29:12;;;;;;;0.22;0.22;;;;;;;;;;4973520;28;20046;-79
2023/03/22 10:31:41;;;;;;;0.20;0.10;;;;;;;;;;4974004;28;20038;-79
2023/03/22 10:34:28;;;;;;;0.28;0.17;;;;;;;;;;4975765;28;20499;-78
2023/03/22 10:36:54;;;;;;;0.20;0.10;;;;;;;;;;4975803;28;20154;-78
2023/03/22 10:39:27;;;;;;;0.20;0.10;;;;;;;;;;4977429;28;20189;-77
2023/03/22 10:41:54;;;;;;;0.20;0.10;;;;;;;;;;4974141;28;20045;-79
2023/03/22 10:44:20;;;;;;;0.68;0.50;;;;;;;;;;4974687;28;20034;-78
2023/03/22 10:46:48;;;;;;;0.20;0.10;;;;;;;;;;4969437;28;20395;-79
2023/03/22 10:49:18;;;;;;;0.20;0.10;;;;;;;;;;4978169;28;21438;-79
2023/03/22 10:51:47;;;;;;;1.27;0.25;;;;;;;;;;4997630;23;20548;-74
2023/03/22 10:54:14;;;;;;;0.20;0.10;;;;;;;;;;5005418;28;20049;-73
2023/03/22 10:56:40;;;;;;;0.20;0.10;;;;;;;;;;5005202;28;20453;-74
2023/03/22 10:59:06;;;;;;;0.20;0.10;;;;;;;;;;4986914;28;20037;-74
2023/03/22 11:01:35;;;;;;;0.25;0.20;;;;;;;;;;4992673;28;20088;-73
2023/03/22 11:04:15;;;;;;;1.95;1.58;;;;;;;;;;4984897;28;20050;-76
2023/03/22 11:06:51;;;;;;;0.43;0.30;;;;;;;;;;4986641;28;20046;-73
2023/03/22 11:09:22;;;;;;;0.20;0.10;;;;;;;;;;4976281;28;20048;-73
2023/03/22 11:11:52;;;;;;;0.20;0.10;;;;;;;;;;4966128;28;20567;-73
2023/03/22 11:14:30;;;;;;;0.20;0.10;;;;;;;;;;4980350;28;20046;-73
2023/03/22 11:17:00;;;;;;;0.20;0.10;;;;;;;;;;4978483;28;20401;-74
2023/03/22 11:19:35;;;;;;;0.20;0.20;;;;;;;;;;4982664;28;20064;-72
2023/03/22 11:22:03;;;;;;;0.20;0.10;;;;;;;;;;4984919;28;20042;-75
2023/03/22 11:24:30;;;;;;;0.38;0.10;;;;;;;;;;4978667;28;20083;-73
2023/03/22 11:27:02;;;;;;;0.22;0.22;;;;;;;;;;4980512;28;20044;-73
2023/03/22 11:29:38;;;;;;;0.20;0.10;;;;;;;;;;4980141;28;20529;-73
2023/03/22 11:32:04;;;;;;;0.20;0.10;;;;;;;;;;4965757;28;20087;-71
2023/03/22 11:34:30;;;;;;;0.20;0.10;;;;;;;;;;4986744;28;20125;-74
2023/03/22 11:36:59;;;;;;;3.20;0.28;;;;;;;;;;4989559;28;22541;-74
2023/03/22 11:39:27;;;;;;;0.20;0.10;;;;;;;;;;4989035;28;20050;-74
2023/03/22 11:41:56;;;;;;;0.30;0.10;;;;;;;;;;4987774;28;20041;-74
2023/03/22 11:44:25;;;;;;;0.22;0.15;;;;;;;;;;4982109;28;20076;-74
2023/03/22 11:46:56;;;;;;;0.20;0.10;;;;;;;;;;4970732;28;20088;-75
2023/03/22 11:49:25;;;;;;;0.20;0.10;;;;;;;;;;4989191;28;20046;-75
2023/03/22 11:51:51;;;;;;;0.20;0.10;;;;;;;;;;4969172;28;20054;-75
2023/03/22 11:54:24;;;;;;;0.20;0.00;;;;;;;;;;4988163;28;20046;-75
2023/03/22 11:56:51;;;;;;;0.20;0.10;;;;;;;;;;4991750;28;20048;-75
2023/03/22 11:59:29;;;;;;;0.20;0.10;;;;;;;;;;4972731;28;20418;-75
2023/03/22 12:02:01;;;;;;;0.20;0.10;;;;;;;;;;4974181;28;20046;-74
2023/03/22 12:04:29;;;;;;;0.20;0.10;;;;;;;;;;4991088;28;20078;-73
2023/03/22 12:06:56;;;;;;;0.20;0.20;;;;;;;;;;4990486;28;20446;-75
2023/03/22 12:09:38;;;;;;;0.85;0.85;;;;;;;;;;4968858;28;20071;-75
2023/03/22 12:12:06;;;;;;;0.20;0.10;;;;;;;;;;4977592;28;20050;-75
2023/03/22 12:14:42;;;;;;;0.55;0.38;;;;;;;;;;4974386;28;20061;-75
2023/03/22 12:17:11;;;;;;;0.20;0.10;;;;;;;;;;4987590;28;20047;-75
2023/03/22 12:19:57;;;;;;;0.20;0.20;;;;;;;;;;4965992;28;20524;-75
2023/03/22 12:22:35;;;;;;;0.30;0.20;;;;;;;;;;4975822;28;20040;-74
2023/03/22 12:25:02;;;;;;;2.05;0.93;;;;;;;;;;4983181;28;20130;-75
2023/03/22 12:27:33;;;;;;;0.20;0.10;;;;;;;;;;5001091;28;20042;-75
2023/03/22 12:30:20;;;;;;;0.35;0.25;;;;;;;;;;4973192;28;20392;-74
2023/03/22 12:32:49;;;;;;;0.20;0.10;;;;;;;;;;4977405;28;20411;-74
2023/03/22 12:35:17;;;;;;;1.42;0.82;;;;;;;;;;4994901;28;20395;-76
2023/03/22 12:37:45;;;;;;;0.20;0.10;;;;;;;;;;4991808;28;20586;-76
2023/03/22 12:40:21;;;;;;;0.20;0.10;;;;;;;;;;4995519;28;20076;-75
2023/03/22 12:42:56;;;;;;;0.20;0.10;;;;;;;;;;4978368;28;20368;-76
2023/03/22 12:45:24;;;;;;;0.30;0.30;;;;;;;;;;4983873;28;21104;-74
2023/03/22 12:47:55;;;;;;;0.20;0.10;;;;;;;;;;4988265;28;20037;-76
2023/03/22 12:50:23;;;;;;;0.20;0.10;;;;;;;;;;4991441;28;20119;-75
2023/03/22 12:52:52;;;;;;;0.25;0.20;;;;;;;;;;4990684;28;20510;-74
2023/03/22 12:55:21;;;;;;;0.20;0.10;;;;;;;;;;4971862;28;20042;-74
2023/03/22 12:57:50;;;;;;;0.30;0.10;;;;;;;;;;4988040;28;20512;-75
2023/03/22 13:00:16;;;;;;;0.20;0.10;;;;;;;;;;4988801;28;20042;-73
2023/03/22 13:02:48;;;;;;;1.52;0.82;;;;;;;;;;4977606;28;20085;-75
2023/03/22 13:05:14;;;;;;;0.20;0.10;;;;;;;;;;4993063;28;20034;-73
2023/03/22 13:07:46;;;;;;;0.20;0.20;;;;;;;;;;4993302;28;20506;-75
2023/03/22 13:10:31;;;;;;;0.60;0.55;;;;;;;;;;4986119;28;21353;-74
2023/03/22 13:13:10;;;;;;;0.28;0.10;;;;;;;;;;4992966;28;20433;-75
2023/03/22 13:15:38;;;;;;;0.40;0.20;;;;;;;;;;5009288;28;20100;-76
2023/03/22 13:18:04;;;;;;;0.20;0.10;;;;;;;;;;5006869;28;20541;-74
2023/03/22 13:20:32;;;;;;;0.20;0.08;;;;;;;;;;4979154;28;20655;-75
2023/03/22 13:23:00;;;;;;;0.20;0.10;;;;;;;;;;4960882;28;20049;-73
2023/03/22 13:25:26;;;;;;;0.45;0.32;;;;;;;;;;4975040;28;20053;-75
2023/03/22 13:27:56;;;;;;;0.20;0.13;;;;;;;;;;4987899;28;20048;-76
2023/03/22 13:30:28;;;;;;;0.40;0.20;;;;;;;;;;4994621;28;20052;-74
2023/03/22 13:33:09;;;;;;;0.20;0.10;;;;;;;;;;4995667;28;20030;-74
2023/03/22 13:35:56;;;;;;;0.20;0.10;;;;;;;;;;4989231;28;20324;-75
2023/03/22 13:38:39;;;;;;;0.20;0.10;;;;;;;;;;4981599;28;20057;-74
2023/03/22 13:41:17;;;;;;;0.20;0.20;;;;;;;;;;4989718;28;20050;-74
2023/03/22 13:43:50;;;;;;;0.20;0.10;;;;;;;;;;4990530;28;20041;-73
2023/03/22 13:46:19;;;;;;;0.20;0.10;;;;;;;;;;4973765;28;20040;-74
2023/03/22 13:48:51;;;;;;;1.08;0.88;;;;;;;;;;4989684;28;20073;-73
2023/03/22 13:51:28;;;;;;;0.20;0.10;;;;;;;;;;4989785;28;20112;-74
2023/03/22 13:54:03;;;;;;;0.20;0.10;;;;;;;;;;4978195;28;20473;-75
2023/03/22 13:56:32;;;;;;;0.20;0.13;;;;;;;;;;4983924;28;20571;-74
2023/03/22 13:58:59;;;;;;;0.20;0.20;;;;;;;;;;4992271;28;20530;-76
2023/03/22 14:01:25;;;;;;;0.20;0.10;;;;;;;;;;4968076;28;20038;-74
2023/03/22 14:03:51;;;;;;;0.40;0.35;;;;;;;;;;4970547;28;20100;-74
2023/03/22 14:06:23;;;;;;;0.20;0.10;;;;;;;;;;4966170;28;20038;-75
2023/03/22 14:08:50;;;;;;;0.20;0.10;;;;;;;;;;4971980;28;20097;-75
2023/03/22 14:11:20;;;;;;;0.20;0.17;;;;;;;;;;4973388;28;20045;-75
2023/03/22 14:14:10;;;;;;;0.20;0.10;;;;;;;;;;4987923;28;20139;-75
2023/03/22 14:16:41;;;;;;;0.20;0.10;;;;;;;;;;4971286;28;20044;-75
2023/03/22 14:19:08;;;;;;;0.20;0.10;;;;;;;;;;4970514;28;20041;-76
2023/03/22 14:21:37;;;;;;;0.20;0.10;;;;;;;;;;4974790;28;20034;-75
2023/03/22 14:24:05;;;;;;;0.20;0.10;;;;;;;;;;4988680;28;20058;-75
2023/03/22 14:26:34;;;;;;;0.95;0.95;;;;;;;;;;4984080;28;20053;-74
2023/03/22 14:29:19;;;;;;;0.20;0.10;;;;;;;;;;4992639;28;20045;-74
2023/03/22 14:31:56;;;;;;;0.28;0.28;;;;;;;;;;4986960;28;20122;-75
2023/03/22 14:34:23;;;;;;;0.50;0.30;;;;;;;;;;4990254;28;20073;-74
2023/03/22 14:36:54;;;;;;;0.52;0.20;;;;;;;;;;4988591;28;20052;-76
2023/03/22 14:39:21;;;;;;;0.20;0.10;;;;;;;;;;4987928;28;20045;-74
2023/03/22 14:42:07;;;;;;;0.20;0.10;;;;;;;;;;4988220;28;20133;-74
2023/03/22 14:44:39;;;;;;;0.30;0.10;;;;;;;;;;5007379;28;20066;-76
2023/03/22 14:47:14;;;;;;;0.20;0.20;;;;;;;;;;4990411;28;20076;-75